sensor_id;sensor_type;location;lat;lon;timestamp;P1;durP1;ratioP1;P2;durP2;ratioP2
12925;SDS011;6529;50.566;9.774;2022-09-12T00:01:11;3.33;;;3.03;;
12925;SDS011;6529;50.566;9.774;2022-09-12T00:03:37;3.30;;;3.00;;
12925;SDS011;6529;50.566;9.774;2022-09-12T00:08:53;3.73;;;3.00;;
12925;SDS011;6529;50.566;9.774;2022-09-12T00:11:19;3.70;;;3.00;;
12925;SDS011;6529;50.566;9.774;2022-09-12T00:13:45;3.20;;;2.90;;
12925;SDS011;6529;50.566;9.774;2022-09-12T00:16:15;3.17;;;2.60;;
12925;SDS011;6529;50.566;9.774;2022-09-12T00:18:42;3.27;;;2.73;;
12925;SDS011;6529;50.566;9.774;2022-09-12T00:21:10;3.23;;;2.80;;
12925;SDS011;6529;50.566;9.774;2022-09-12T00:23:36;3.80;;;3.00;;
12925;SDS011;6529;50.566;9.774;2022-09-12T00:26:03;3.90;;;3.00;;
12925;SDS011;6529;50.566;9.774;2022-09-12T00:28:29;3.83;;;2.73;;
12925;SDS011;6529;50.566;9.774;2022-09-12T00:30:55;2.70;;;2.50;;
12925;SDS011;6529;50.566;9.774;2022-09-12T00:33:21;3.40;;;2.97;;
12925;SDS011;6529;50.566;9.774;2022-09-12T00:35:49;3.63;;;3.23;;
12925;SDS011;6529;50.566;9.774;2022-09-12T00:38:17;3.07;;;2.77;;
12925;SDS011;6529;50.566;9.774;2022-09-12T00:40:43;2.70;;;2.50;;
12925;SDS011;6529;50.566;9.774;2022-09-12T00:43:52;5.43;;;3.10;;
12925;SDS011;6529;50.566;9.774;2022-09-12T00:46:00;3.43;;;2.90;;
12925;SDS011;6529;50.566;9.774;2022-09-12T00:48:30;4.00;;;3.60;;
12925;SDS011;6529;50.566;9.774;2022-09-12T00:50:58;3.23;;;2.93;;
12925;SDS011;6529;50.566;9.774;2022-09-12T00:53:24;3.53;;;2.63;;
12925;SDS011;6529;50.566;9.774;2022-09-12T00:55:50;3.90;;;2.30;;
12925;SDS011;6529;50.566;9.774;2022-09-12T00:58:21;2.93;;;2.70;;
12925;SDS011;6529;50.566;9.774;2022-09-12T01:00:48;3.30;;;3.00;;
12925;SDS011;6529;50.566;9.774;2022-09-12T01:03:15;3.50;;;3.20;;
12925;SDS011;6529;50.566;9.774;2022-09-12T01:05:42;3.53;;;3.10;;
12925;SDS011;6529;50.566;9.774;2022-09-12T01:10:56;4.60;;;3.70;;
12925;SDS011;6529;50.566;9.774;2022-09-12T01:13:22;4.30;;;3.90;;
12925;SDS011;6529;50.566;9.774;2022-09-12T01:15:49;4.23;;;3.27;;
12925;SDS011;6529;50.566;9.774;2022-09-12T01:23:12;5.67;;;4.13;;
12925;SDS011;6529;50.566;9.774;2022-09-12T01:30:54;6.87;;;3.73;;
12925;SDS011;6529;50.566;9.774;2022-09-12T01:33:35;4.87;;;3.90;;
12925;SDS011;6529;50.566;9.774;2022-09-12T01:43:51;4.23;;;3.47;;
12925;SDS011;6529;50.566;9.774;2022-09-12T01:54:15;14.07;;;4.37;;
12925;SDS011;6529;50.566;9.774;2022-09-12T01:56:43;19.37;;;4.80;;
12925;SDS011;6529;50.566;9.774;2022-09-12T01:59:19;14.87;;;4.93;;
12925;SDS011;6529;50.566;9.774;2022-09-12T02:01:48;5.67;;;4.30;;
12925;SDS011;6529;50.566;9.774;2022-09-12T02:11:59;7.33;;;4.20;;
12925;SDS011;6529;50.566;9.774;2022-09-12T02:14:30;6.63;;;4.30;;
12925;SDS011;6529;50.566;9.774;2022-09-12T02:19:24;11.17;;;4.17;;
12925;SDS011;6529;50.566;9.774;2022-09-12T02:21:56;8.63;;;4.53;;
12925;SDS011;6529;50.566;9.774;2022-09-12T02:24:24;7.10;;;4.13;;
12925;SDS011;6529;50.566;9.774;2022-09-12T02:26:54;8.63;;;4.23;;
12925;SDS011;6529;50.566;9.774;2022-09-12T02:29:20;6.37;;;4.03;;
12925;SDS011;6529;50.566;9.774;2022-09-12T02:31:48;9.77;;;3.80;;
12925;SDS011;6529;50.566;9.774;2022-09-12T02:39:42;4.20;;;3.30;;
12925;SDS011;6529;50.566;9.774;2022-09-12T02:42:08;3.97;;;3.57;;
12925;SDS011;6529;50.566;9.774;2022-09-12T02:44:34;6.60;;;3.97;;
12925;SDS011;6529;50.566;9.774;2022-09-12T02:49:33;11.27;;;4.57;;
12925;SDS011;6529;50.566;9.774;2022-09-12T02:51:59;9.40;;;4.73;;
12925;SDS011;6529;50.566;9.774;2022-09-12T02:54:26;11.43;;;4.60;;
12925;SDS011;6529;50.566;9.774;2022-09-12T02:56:52;15.77;;;4.50;;
12925;SDS011;6529;50.566;9.774;2022-09-12T02:59:19;6.13;;;4.37;;
12925;SDS011;6529;50.566;9.774;2022-09-12T03:02:06;7.10;;;4.67;;
12925;SDS011;6529;50.566;9.774;2022-09-12T03:12:45;6.17;;;4.07;;
12925;SDS011;6529;50.566;9.774;2022-09-12T03:17:42;5.27;;;3.97;;
12925;SDS011;6529;50.566;9.774;2022-09-12T03:20:17;7.93;;;4.23;;
12925;SDS011;6529;50.566;9.774;2022-09-12T03:22:52;5.27;;;4.20;;
12925;SDS011;6529;50.566;9.774;2022-09-12T03:27:52;4.10;;;3.70;;
12925;SDS011;6529;50.566;9.774;2022-09-12T03:30:21;4.40;;;4.00;;
12925;SDS011;6529;50.566;9.774;2022-09-12T03:32:51;7.87;;;4.23;;
12925;SDS011;6529;50.566;9.774;2022-09-12T03:35:18;7.67;;;4.13;;
12925;SDS011;6529;50.566;9.774;2022-09-12T03:37:45;7.13;;;4.43;;
12925;SDS011;6529;50.566;9.774;2022-09-12T03:40:12;6.77;;;4.43;;
12925;SDS011;6529;50.566;9.774;2022-09-12T03:42:39;7.93;;;3.93;;
12925;SDS011;6529;50.566;9.774;2022-09-12T03:45:06;6.40;;;4.37;;
12925;SDS011;6529;50.566;9.774;2022-09-12T03:47:32;5.07;;;3.83;;
12925;SDS011;6529;50.566;9.774;2022-09-12T03:49:58;6.77;;;3.87;;
12925;SDS011;6529;50.566;9.774;2022-09-12T03:52:24;6.03;;;4.33;;
12925;SDS011;6529;50.566;9.774;2022-09-12T03:54:50;6.33;;;3.93;;
12925;SDS011;6529;50.566;9.774;2022-09-12T03:57:16;5.23;;;4.17;;
12925;SDS011;6529;50.566;9.774;2022-09-12T03:59:42;4.60;;;4.10;;
12925;SDS011;6529;50.566;9.774;2022-09-12T04:02:08;10.30;;;4.20;;
12925;SDS011;6529;50.566;9.774;2022-09-12T04:04:37;4.53;;;3.90;;
12925;SDS011;6529;50.566;9.774;2022-09-12T04:09:53;5.27;;;3.77;;
12925;SDS011;6529;50.566;9.774;2022-09-12T04:12:19;5.73;;;4.17;;
12925;SDS011;6529;50.566;9.774;2022-09-12T04:14:45;9.80;;;3.83;;
12925;SDS011;6529;50.566;9.774;2022-09-12T04:17:11;17.17;;;4.50;;
12925;SDS011;6529;50.566;9.774;2022-09-12T04:19:38;6.13;;;4.30;;
12925;SDS011;6529;50.566;9.774;2022-09-12T04:22:04;11.20;;;4.53;;
12925;SDS011;6529;50.566;9.774;2022-09-12T04:24:30;9.37;;;4.33;;
12925;SDS011;6529;50.566;9.774;2022-09-12T04:26:56;7.80;;;3.97;;
12925;SDS011;6529;50.566;9.774;2022-09-12T04:29:22;7.50;;;4.00;;
12925;SDS011;6529;50.566;9.774;2022-09-12T04:31:48;8.30;;;4.33;;
12925;SDS011;6529;50.566;9.774;2022-09-12T04:34:14;24.27;;;5.03;;
12925;SDS011;6529;50.566;9.774;2022-09-12T04:36:40;8.50;;;5.00;;
12925;SDS011;6529;50.566;9.774;2022-09-12T04:39:06;12.60;;;4.90;;
12925;SDS011;6529;50.566;9.774;2022-09-12T04:41:34;9.10;;;4.00;;
12925;SDS011;6529;50.566;9.774;2022-09-12T04:44:02;9.83;;;3.70;;
12925;SDS011;6529;50.566;9.774;2022-09-12T04:46:29;20.20;;;4.30;;
12925;SDS011;6529;50.566;9.774;2022-09-12T04:48:56;11.97;;;3.70;;
12925;SDS011;6529;50.566;9.774;2022-09-12T04:51:29;14.33;;;3.73;;
12925;SDS011;6529;50.566;9.774;2022-09-12T04:53:59;17.73;;;3.60;;
12925;SDS011;6529;50.566;9.774;2022-09-12T04:56:26;10.53;;;3.47;;
12925;SDS011;6529;50.566;9.774;2022-09-12T04:58:52;15.50;;;3.80;;
12925;SDS011;6529;50.566;9.774;2022-09-12T05:01:19;5.10;;;3.00;;
12925;SDS011;6529;50.566;9.774;2022-09-12T05:03:45;4.57;;;3.20;;
12925;SDS011;6529;50.566;9.774;2022-09-12T05:09:16;14.47;;;3.90;;
12925;SDS011;6529;50.566;9.774;2022-09-12T05:11:42;22.70;;;4.13;;
12925;SDS011;6529;50.566;9.774;2022-09-12T05:14:09;13.30;;;3.77;;
12925;SDS011;6529;50.566;9.774;2022-09-12T05:16:35;10.40;;;3.00;;
12925;SDS011;6529;50.566;9.774;2022-09-12T05:19:01;8.03;;;3.73;;
12925;SDS011;6529;50.566;9.774;2022-09-12T05:21:28;7.37;;;3.57;;
12925;SDS011;6529;50.566;9.774;2022-09-12T05:23:55;6.97;;;3.20;;
12925;SDS011;6529;50.566;9.774;2022-09-12T05:26:22;10.63;;;3.70;;
12925;SDS011;6529;50.566;9.774;2022-09-12T05:28:49;6.00;;;3.40;;
12925;SDS011;6529;50.566;9.774;2022-09-12T05:31:19;3.50;;;3.20;;
12925;SDS011;6529;50.566;9.774;2022-09-12T05:33:46;5.07;;;2.90;;
12925;SDS011;6529;50.566;9.774;2022-09-12T05:36:13;9.10;;;3.27;;
12925;SDS011;6529;50.566;9.774;2022-09-12T05:38:41;6.60;;;3.23;;
12925;SDS011;6529;50.566;9.774;2022-09-12T05:41:08;6.37;;;3.10;;
12925;SDS011;6529;50.566;9.774;2022-09-12T05:43:37;4.50;;;2.93;;
12925;SDS011;6529;50.566;9.774;2022-09-12T05:46:07;3.80;;;2.97;;
12925;SDS011;6529;50.566;9.774;2022-09-12T05:48:36;7.47;;;3.90;;
12925;SDS011;6529;50.566;9.774;2022-09-12T05:51:04;3.60;;;3.30;;
12925;SDS011;6529;50.566;9.774;2022-09-12T05:53:31;3.37;;;3.07;;
12925;SDS011;6529;50.566;9.774;2022-09-12T05:56:05;3.23;;;3.00;;
12925;SDS011;6529;50.566;9.774;2022-09-12T05:58:32;3.17;;;2.87;;
12925;SDS011;6529;50.566;9.774;2022-09-12T06:01:02;3.20;;;2.90;;
12925;SDS011;6529;50.566;9.774;2022-09-12T06:03:29;3.20;;;2.90;;
12925;SDS011;6529;50.566;9.774;2022-09-12T06:05:55;3.63;;;3.27;;
12925;SDS011;6529;50.566;9.774;2022-09-12T06:08:34;3.47;;;3.17;;
12925;SDS011;6529;50.566;9.774;2022-09-12T06:11:01;3.40;;;3.10;;
12925;SDS011;6529;50.566;9.774;2022-09-12T06:13:29;3.40;;;2.90;;
12925;SDS011;6529;50.566;9.774;2022-09-12T06:16:00;3.17;;;2.90;;
12925;SDS011;6529;50.566;9.774;2022-09-12T06:18:26;3.10;;;2.50;;
12925;SDS011;6529;50.566;9.774;2022-09-12T06:20:52;2.70;;;2.50;;
12925;SDS011;6529;50.566;9.774;2022-09-12T06:23:18;2.80;;;2.50;;
12925;SDS011;6529;50.566;9.774;2022-09-12T06:25:45;2.97;;;2.67;;
12925;SDS011;6529;50.566;9.774;2022-09-12T06:28:12;3.07;;;2.77;;
12925;SDS011;6529;50.566;9.774;2022-09-12T06:30:38;2.70;;;2.50;;
12925;SDS011;6529;50.566;9.774;2022-09-12T06:33:04;2.90;;;2.67;;
12925;SDS011;6529;50.566;9.774;2022-09-12T06:35:30;3.07;;;2.77;;
12925;SDS011;6529;50.566;9.774;2022-09-12T06:37:56;2.90;;;2.70;;
12925;SDS011;6529;50.566;9.774;2022-09-12T06:40:22;2.67;;;2.47;;
12925;SDS011;6529;50.566;9.774;2022-09-12T06:42:48;3.30;;;3.00;;
12925;SDS011;6529;50.566;9.774;2022-09-12T06:45:14;3.03;;;2.77;;
12925;SDS011;6529;50.566;9.774;2022-09-12T06:47:40;3.10;;;2.80;;
12925;SDS011;6529;50.566;9.774;2022-09-12T06:50:06;2.97;;;2.43;;
12925;SDS011;6529;50.566;9.774;2022-09-12T06:52:33;5.43;;;3.40;;
12925;SDS011;6529;50.566;9.774;2022-09-12T06:54:59;4.43;;;3.30;;
12925;SDS011;6529;50.566;9.774;2022-09-12T06:57:25;3.40;;;3.10;;
12925;SDS011;6529;50.566;9.774;2022-09-12T06:59:54;2.90;;;2.70;;
12925;SDS011;6529;50.566;9.774;2022-09-12T07:02:20;3.10;;;2.90;;
12925;SDS011;6529;50.566;9.774;2022-09-12T07:04:46;4.33;;;2.97;;
12925;SDS011;6529;50.566;9.774;2022-09-12T07:10:03;3.40;;;3.10;;
12925;SDS011;6529;50.566;9.774;2022-09-12T07:12:30;3.40;;;3.10;;
12925;SDS011;6529;50.566;9.774;2022-09-12T07:14:56;7.60;;;3.60;;
12925;SDS011;6529;50.566;9.774;2022-09-12T07:17:22;3.73;;;3.30;;
12925;SDS011;6529;50.566;9.774;2022-09-12T07:19:48;4.07;;;3.67;;
12925;SDS011;6529;50.566;9.774;2022-09-12T07:22:14;5.77;;;3.43;;
12925;SDS011;6529;50.566;9.774;2022-09-12T07:24:40;3.73;;;3.40;;
12925;SDS011;6529;50.566;9.774;2022-09-12T07:27:06;3.87;;;3.57;;
12925;SDS011;6529;50.566;9.774;2022-09-12T07:29:32;3.60;;;3.30;;
12925;SDS011;6529;50.566;9.774;2022-09-12T07:31:58;3.70;;;3.40;;
12925;SDS011;6529;50.566;9.774;2022-09-12T07:34:26;11.67;;;4.10;;
12925;SDS011;6529;50.566;9.774;2022-09-12T07:36:52;4.27;;;3.90;;
12925;SDS011;6529;50.566;9.774;2022-09-12T07:39:18;4.00;;;3.50;;
12925;SDS011;6529;50.566;9.774;2022-09-12T07:41:44;3.83;;;3.43;;
12925;SDS011;6529;50.566;9.774;2022-09-12T07:44:10;4.20;;;3.70;;
12925;SDS011;6529;50.566;9.774;2022-09-12T07:46:36;4.33;;;3.93;;
12925;SDS011;6529;50.566;9.774;2022-09-12T07:49:03;3.83;;;3.53;;
12925;SDS011;6529;50.566;9.774;2022-09-12T07:51:30;3.93;;;3.63;;
12925;SDS011;6529;50.566;9.774;2022-09-12T07:53:56;3.93;;;3.53;;
12925;SDS011;6529;50.566;9.774;2022-09-12T07:56:22;3.77;;;3.37;;
12925;SDS011;6529;50.566;9.774;2022-09-12T07:58:49;4.20;;;3.63;;
12925;SDS011;6529;50.566;9.774;2022-09-12T08:01:16;3.63;;;3.27;;
12925;SDS011;6529;50.566;9.774;2022-09-12T08:03:43;3.70;;;3.40;;
12925;SDS011;6529;50.566;9.774;2022-09-12T08:06:12;3.47;;;3.17;;
12925;SDS011;6529;50.566;9.774;2022-09-12T08:08:39;3.93;;;3.63;;
12925;SDS011;6529;50.566;9.774;2022-09-12T08:11:06;3.70;;;3.40;;
12925;SDS011;6529;50.566;9.774;2022-09-12T08:13:33;3.80;;;3.50;;
12925;SDS011;6529;50.566;9.774;2022-09-12T08:16:00;3.40;;;3.10;;
12925;SDS011;6529;50.566;9.774;2022-09-12T08:18:27;3.80;;;3.47;;
12925;SDS011;6529;50.566;9.774;2022-09-12T08:20:57;3.77;;;3.47;;
12925;SDS011;6529;50.566;9.774;2022-09-12T08:23:23;3.83;;;3.53;;
12925;SDS011;6529;50.566;9.774;2022-09-12T08:25:49;3.90;;;3.60;;
12925;SDS011;6529;50.566;9.774;2022-09-12T08:28:15;4.20;;;3.80;;
12925;SDS011;6529;50.566;9.774;2022-09-12T08:30:41;2.90;;;2.70;;
12925;SDS011;6529;50.566;9.774;2022-09-12T08:33:07;2.90;;;2.67;;
12925;SDS011;6529;50.566;9.774;2022-09-12T08:35:33;3.90;;;3.60;;
12925;SDS011;6529;50.566;9.774;2022-09-12T08:37:59;3.00;;;2.73;;
12925;SDS011;6529;50.566;9.774;2022-09-12T08:40:25;2.83;;;2.50;;
12925;SDS011;6529;50.566;9.774;2022-09-12T08:42:53;5.63;;;4.33;;
12925;SDS011;6529;50.566;9.774;2022-09-12T08:45:28;2.90;;;2.70;;
12925;SDS011;6529;50.566;9.774;2022-09-12T08:47:58;4.70;;;4.30;;
12925;SDS011;6529;50.566;9.774;2022-09-12T08:50:25;5.10;;;4.60;;
12925;SDS011;6529;50.566;9.774;2022-09-12T08:57:44;3.60;;;3.30;;
12925;SDS011;6529;50.566;9.774;2022-09-12T09:00:13;3.67;;;3.07;;
12925;SDS011;6529;50.566;9.774;2022-09-12T09:02:44;3.33;;;3.03;;
12925;SDS011;6529;50.566;9.774;2022-09-12T09:05:24;3.20;;;2.90;;
12925;SDS011;6529;50.566;9.774;2022-09-12T09:16:43;2.90;;;2.70;;
12925;SDS011;6529;50.566;9.774;2022-09-12T09:19:20;4.87;;;4.37;;
12925;SDS011;6529;50.566;9.774;2022-09-12T09:21:53;4.47;;;4.07;;
12925;SDS011;6529;50.566;9.774;2022-09-12T09:24:20;4.38;;;3.97;;
12925;SDS011;6529;50.566;9.774;2022-09-12T09:26:54;4.50;;;4.10;;
12925;SDS011;6529;50.566;9.774;2022-09-12T09:29:23;4.57;;;3.78;;
12925;SDS011;6529;50.566;9.774;2022-09-12T09:31:53;5.28;;;4.00;;
12925;SDS011;6529;50.566;9.774;2022-09-12T09:34:22;4.10;;;3.80;;
12925;SDS011;6529;50.566;9.774;2022-09-12T09:42:00;3.33;;;3.03;;
12925;SDS011;6529;50.566;9.774;2022-09-12T09:44:29;3.63;;;3.30;;
12925;SDS011;6529;50.566;9.774;2022-09-12T09:46:56;3.20;;;2.88;;
12925;SDS011;6529;50.566;9.774;2022-09-12T09:49:24;4.90;;;3.22;;
12925;SDS011;6529;50.566;9.774;2022-09-12T09:51:51;3.38;;;3.08;;
12925;SDS011;6529;50.566;9.774;2022-09-12T09:56:43;3.15;;;2.85;;
12925;SDS011;6529;50.566;9.774;2022-09-12T09:59:26;3.28;;;2.97;;
12925;SDS011;6529;50.566;9.774;2022-09-12T10:04:29;3.38;;;3.08;;
12925;SDS011;6529;50.566;9.774;2022-09-12T10:07:02;3.72;;;3.25;;
12925;SDS011;6529;50.566;9.774;2022-09-12T10:09:30;3.35;;;3.00;;
12925;SDS011;6529;50.566;9.774;2022-09-12T10:11:57;3.65;;;3.28;;
12925;SDS011;6529;50.566;9.774;2022-09-12T10:14:31;4.38;;;3.17;;
12925;SDS011;6529;50.566;9.774;2022-09-12T10:16:59;3.30;;;3.00;;
12925;SDS011;6529;50.566;9.774;2022-09-12T10:19:38;3.40;;;3.10;;
12925;SDS011;6529;50.566;9.774;2022-09-12T10:22:04;3.40;;;3.03;;
12925;SDS011;6529;50.566;9.774;2022-09-12T10:24:41;3.72;;;3.40;;
12925;SDS011;6529;50.566;9.774;2022-09-12T10:27:17;4.00;;;3.60;;
12925;SDS011;6529;50.566;9.774;2022-09-12T10:34:53;4.05;;;3.22;;
12925;SDS011;6529;50.566;9.774;2022-09-12T10:37:25;5.00;;;3.72;;
12925;SDS011;6529;50.566;9.774;2022-09-12T10:39:55;4.93;;;3.75;;
12925;SDS011;6529;50.566;9.774;2022-09-12T10:45:16;4.43;;;3.83;;
12925;SDS011;6529;50.566;9.774;2022-09-12T10:47:42;4.88;;;3.85;;
12925;SDS011;6529;50.566;9.774;2022-09-12T10:50:22;4.82;;;3.88;;
12925;SDS011;6529;50.566;9.774;2022-09-12T10:52:50;6.40;;;4.60;;
12925;SDS011;6529;50.566;9.774;2022-09-12T10:55:16;5.93;;;3.80;;
12925;SDS011;6529;50.566;9.774;2022-09-12T11:00:24;5.40;;;4.53;;
12925;SDS011;6529;50.566;9.774;2022-09-12T11:05:44;7.00;;;5.00;;
12925;SDS011;6529;50.566;9.774;2022-09-12T11:16:40;7.35;;;5.53;;
12925;SDS011;6529;50.566;9.774;2022-09-12T11:24:13;8.32;;;5.22;;
12925;SDS011;6529;50.566;9.774;2022-09-12T11:39:45;5.95;;;5.30;;
12925;SDS011;6529;50.566;9.774;2022-09-12T11:42:15;7.38;;;5.32;;
12925;SDS011;6529;50.566;9.774;2022-09-12T11:44:44;5.82;;;4.90;;
12925;SDS011;6529;50.566;9.774;2022-09-12T11:47:11;7.47;;;5.13;;
12925;SDS011;6529;50.566;9.774;2022-09-12T11:49:50;6.90;;;4.82;;
12925;SDS011;6529;50.566;9.774;2022-09-12T11:52:19;7.85;;;4.75;;
12925;SDS011;6529;50.566;9.774;2022-09-12T12:02:14;6.30;;;5.10;;
12925;SDS011;6529;50.566;9.774;2022-09-12T12:04:58;6.53;;;4.82;;
12925;SDS011;6529;50.566;9.774;2022-09-12T12:07:50;5.30;;;4.55;;
12925;SDS011;6529;50.566;9.774;2022-09-12T12:10:20;6.55;;;4.57;;
12925;SDS011;6529;50.566;9.774;2022-09-12T12:12:48;6.55;;;4.40;;
12925;SDS011;6529;50.566;9.774;2022-09-12T12:15:15;5.80;;;4.78;;
12925;SDS011;6529;50.566;9.774;2022-09-12T12:17:41;7.03;;;4.78;;
12925;SDS011;6529;50.566;9.774;2022-09-12T12:20:14;5.78;;;4.60;;
12925;SDS011;6529;50.566;9.774;2022-09-12T12:22:51;6.78;;;4.80;;
12925;SDS011;6529;50.566;9.774;2022-09-12T12:27:44;7.07;;;5.93;;
12925;SDS011;6529;50.566;9.774;2022-09-12T12:33:06;4.43;;;4.00;;
12925;SDS011;6529;50.566;9.774;2022-09-12T12:40:52;4.53;;;3.85;;
12925;SDS011;6529;50.566;9.774;2022-09-12T12:43:29;4.30;;;3.90;;
12925;SDS011;6529;50.566;9.774;2022-09-12T12:46:05;5.50;;;4.20;;
12925;SDS011;6529;50.566;9.774;2022-09-12T12:48:33;4.65;;;3.80;;
12925;SDS011;6529;50.566;9.774;2022-09-12T12:53:45;4.03;;;3.63;;
12925;SDS011;6529;50.566;9.774;2022-09-12T12:56:25;5.53;;;3.75;;
12925;SDS011;6529;50.566;9.774;2022-09-12T12:58:59;6.40;;;4.00;;
12925;SDS011;6529;50.566;9.774;2022-09-12T13:01:25;4.50;;;3.63;;
12925;SDS011;6529;50.566;9.774;2022-09-12T13:03:59;4.97;;;3.92;;
12925;SDS011;6529;50.566;9.774;2022-09-12T13:09:32;4.18;;;3.38;;
12925;SDS011;6529;50.566;9.774;2022-09-12T13:12:03;4.40;;;3.65;;
12925;SDS011;6529;50.566;9.774;2022-09-12T13:14:47;4.35;;;3.42;;
12925;SDS011;6529;50.566;9.774;2022-09-12T13:19:50;3.25;;;2.95;;
12925;SDS011;6529;50.566;9.774;2022-09-12T13:22:17;4.95;;;3.75;;
12925;SDS011;6529;50.566;9.774;2022-09-12T13:24:47;4.70;;;3.70;;
12925;SDS011;6529;50.566;9.774;2022-09-12T13:27:25;4.20;;;3.47;;
12925;SDS011;6529;50.566;9.774;2022-09-12T13:32:54;3.58;;;3.28;;
12925;SDS011;6529;50.566;9.774;2022-09-12T13:35:35;3.80;;;3.05;;
12925;SDS011;6529;50.566;9.774;2022-09-12T13:38:21;3.50;;;2.97;;
12925;SDS011;6529;50.566;9.774;2022-09-12T13:43:40;3.20;;;2.90;;
12925;SDS011;6529;50.566;9.774;2022-09-12T13:46:07;3.65;;;3.05;;
12925;SDS011;6529;50.566;9.774;2022-09-12T13:48:33;4.85;;;2.90;;
12925;SDS011;6529;50.566;9.774;2022-09-12T13:51:00;2.97;;;2.67;;
12925;SDS011;6529;50.566;9.774;2022-09-12T13:53:28;3.08;;;2.78;;
12925;SDS011;6529;50.566;9.774;2022-09-12T13:55:56;3.65;;;2.90;;
12925;SDS011;6529;50.566;9.774;2022-09-12T13:58:27;2.90;;;2.70;;
12925;SDS011;6529;50.566;9.774;2022-09-12T14:01:06;3.10;;;2.72;;
12925;SDS011;6529;50.566;9.774;2022-09-12T14:03:40;3.30;;;3.00;;
12925;SDS011;6529;50.566;9.774;2022-09-12T14:11:48;3.45;;;2.50;;
12925;SDS011;6529;50.566;9.774;2022-09-12T14:16:59;3.10;;;2.75;;
12925;SDS011;6529;50.566;9.774;2022-09-12T14:19:26;2.70;;;2.50;;
12925;SDS011;6529;50.566;9.774;2022-09-12T14:21:53;2.85;;;2.65;;
12925;SDS011;6529;50.566;9.774;2022-09-12T14:24:19;2.75;;;2.55;;
12925;SDS011;6529;50.566;9.774;2022-09-12T14:26:47;2.60;;;2.40;;
12925;SDS011;6529;50.566;9.774;2022-09-12T14:29:14;3.70;;;2.20;;
12925;SDS011;6529;50.566;9.774;2022-09-12T14:31:41;2.80;;;2.60;;
12925;SDS011;6529;50.566;9.774;2022-09-12T14:34:09;2.38;;;2.17;;
12925;SDS011;6529;50.566;9.774;2022-09-12T14:36:39;2.40;;;2.20;;
12925;SDS011;6529;50.566;9.774;2022-09-12T14:39:14;2.42;;;2.22;;
12925;SDS011;6529;50.566;9.774;2022-09-12T14:41:42;2.40;;;2.20;;
12925;SDS011;6529;50.566;9.774;2022-09-12T14:44:21;2.53;;;2.33;;
12925;SDS011;6529;50.566;9.774;2022-09-12T14:46:48;2.40;;;2.20;;
12925;SDS011;6529;50.566;9.774;2022-09-12T14:49:15;2.67;;;2.47;;
12925;SDS011;6529;50.566;9.774;2022-09-12T14:56:55;2.58;;;2.38;;
12925;SDS011;6529;50.566;9.774;2022-09-12T15:04:42;2.17;;;1.98;;
12925;SDS011;6529;50.566;9.774;2022-09-12T15:15:33;2.13;;;1.95;;
12925;SDS011;6529;50.566;9.774;2022-09-12T15:17:59;2.63;;;2.30;;
12925;SDS011;6529;50.566;9.774;2022-09-12T15:20:25;1.98;;;1.80;;
12925;SDS011;6529;50.566;9.774;2022-09-12T15:22:51;1.90;;;1.80;;
12925;SDS011;6529;50.566;9.774;2022-09-12T15:25:17;2.00;;;1.80;;
12925;SDS011;6529;50.566;9.774;2022-09-12T15:27:46;2.47;;;1.85;;
12925;SDS011;6529;50.566;9.774;2022-09-12T15:30:13;1.90;;;1.80;;
12925;SDS011;6529;50.566;9.774;2022-09-12T15:32:40;2.42;;;2.22;;
12925;SDS011;6529;50.566;9.774;2022-09-12T15:35:13;2.22;;;2.03;;
12925;SDS011;6529;50.566;9.774;2022-09-12T15:37:40;2.03;;;1.90;;
12925;SDS011;6529;50.566;9.774;2022-09-12T15:40:06;1.88;;;1.77;;
12925;SDS011;6529;50.566;9.774;2022-09-12T15:42:32;1.92;;;1.83;;
12925;SDS011;6529;50.566;9.774;2022-09-12T15:44:58;2.33;;;2.00;;
12925;SDS011;6529;50.566;9.774;2022-09-12T15:50:14;2.33;;;1.88;;
12925;SDS011;6529;50.566;9.774;2022-09-12T15:52:40;2.22;;;2.00;;
12925;SDS011;6529;50.566;9.774;2022-09-12T15:55:11;2.08;;;1.90;;
12925;SDS011;6529;50.566;9.774;2022-09-12T15:57:40;2.10;;;1.83;;
12925;SDS011;6529;50.566;9.774;2022-09-12T16:00:06;4.13;;;2.20;;
12925;SDS011;6529;50.566;9.774;2022-09-12T16:02:33;2.00;;;1.80;;
12925;SDS011;6529;50.566;9.774;2022-09-12T16:04:58;2.00;;;1.60;;
12925;SDS011;6529;50.566;9.774;2022-09-12T16:07:24;3.97;;;1.90;;
12925;SDS011;6529;50.566;9.774;2022-09-12T16:09:51;3.65;;;2.10;;
12925;SDS011;6529;50.566;9.774;2022-09-12T16:12:17;2.13;;;1.92;;
12925;SDS011;6529;50.566;9.774;2022-09-12T16:14:43;2.30;;;2.10;;
12925;SDS011;6529;50.566;9.774;2022-09-12T16:17:12;2.25;;;2.05;;
12925;SDS011;6529;50.566;9.774;2022-09-12T16:19:38;2.22;;;2.03;;
12925;SDS011;6529;50.566;9.774;2022-09-12T16:22:04;2.80;;;1.77;;
12925;SDS011;6529;50.566;9.774;2022-09-12T16:24:30;2.25;;;2.00;;
12925;SDS011;6529;50.566;9.774;2022-09-12T16:26:56;2.13;;;1.83;;
12925;SDS011;6529;50.566;9.774;2022-09-12T16:29:22;2.35;;;2.15;;
12925;SDS011;6529;50.566;9.774;2022-09-12T16:31:48;3.45;;;1.95;;
12925;SDS011;6529;50.566;9.774;2022-09-12T16:34:14;2.83;;;2.03;;
12925;SDS011;6529;50.566;9.774;2022-09-12T16:36:40;2.28;;;2.08;;
12925;SDS011;6529;50.566;9.774;2022-09-12T16:39:09;2.10;;;1.88;;
12925;SDS011;6529;50.566;9.774;2022-09-12T16:41:35;3.35;;;2.55;;
12925;SDS011;6529;50.566;9.774;2022-09-12T16:44:01;2.50;;;2.30;;
12925;SDS011;6529;50.566;9.774;2022-09-12T16:46:27;2.50;;;2.30;;
12925;SDS011;6529;50.566;9.774;2022-09-12T16:48:54;4.45;;;2.25;;
12925;SDS011;6529;50.566;9.774;2022-09-12T16:51:21;2.38;;;2.17;;
12925;SDS011;6529;50.566;9.774;2022-09-12T16:53:47;2.40;;;2.20;;
12925;SDS011;6529;50.566;9.774;2022-09-12T16:56:14;2.50;;;2.30;;
12925;SDS011;6529;50.566;9.774;2022-09-12T16:58:40;2.90;;;2.10;;
12925;SDS011;6529;50.566;9.774;2022-09-12T17:01:08;2.10;;;1.90;;
12925;SDS011;6529;50.566;9.774;2022-09-12T17:03:34;2.28;;;2.00;;
12925;SDS011;6529;50.566;9.774;2022-09-12T17:06:02;2.50;;;2.30;;
12925;SDS011;6529;50.566;9.774;2022-09-12T17:08:28;2.28;;;2.08;;
12925;SDS011;6529;50.566;9.774;2022-09-12T17:11:01;3.88;;;1.98;;
12925;SDS011;6529;50.566;9.774;2022-09-12T17:13:28;2.65;;;2.30;;
12925;SDS011;6529;50.566;9.774;2022-09-12T17:15:54;2.95;;;1.98;;
12925;SDS011;6529;50.566;9.774;2022-09-12T17:18:20;3.08;;;2.10;;
12925;SDS011;6529;50.566;9.774;2022-09-12T17:20:46;3.90;;;2.20;;
12925;SDS011;6529;50.566;9.774;2022-09-12T17:23:12;6.85;;;2.70;;
12925;SDS011;6529;50.566;9.774;2022-09-12T17:25:38;15.98;;;3.28;;
12925;SDS011;6529;50.566;9.774;2022-09-12T17:28:04;9.82;;;2.92;;
12925;SDS011;6529;50.566;9.774;2022-09-12T17:30:34;8.40;;;2.78;;
12925;SDS011;6529;50.566;9.774;2022-09-12T17:33:00;7.30;;;2.55;;
12925;SDS011;6529;50.566;9.774;2022-09-12T17:35:27;2.75;;;2.10;;
12925;SDS011;6529;50.566;9.774;2022-09-12T17:37:53;3.90;;;2.40;;
12925;SDS011;6529;50.566;9.774;2022-09-12T17:40:19;4.75;;;2.63;;
12925;SDS011;6529;50.566;9.774;2022-09-12T17:42:45;5.32;;;2.67;;
12925;SDS011;6529;50.566;9.774;2022-09-12T17:45:11;4.35;;;2.50;;
12925;SDS011;6529;50.566;9.774;2022-09-12T17:47:38;3.30;;;2.13;;
12925;SDS011;6529;50.566;9.774;2022-09-12T17:50:04;2.42;;;2.22;;
12925;SDS011;6529;50.566;9.774;2022-09-12T17:52:31;2.58;;;2.25;;
12925;SDS011;6529;50.566;9.774;2022-09-12T17:54:57;2.70;;;2.50;;
12925;SDS011;6529;50.566;9.774;2022-09-12T17:57:23;3.35;;;2.55;;
12925;SDS011;6529;50.566;9.774;2022-09-12T17:59:49;5.40;;;2.50;;
12925;SDS011;6529;50.566;9.774;2022-09-12T18:02:15;3.00;;;2.35;;
12925;SDS011;6529;50.566;9.774;2022-09-12T18:04:42;3.72;;;2.38;;
12925;SDS011;6529;50.566;9.774;2022-09-12T18:07:15;2.95;;;2.65;;
12925;SDS011;6529;50.566;9.774;2022-09-12T18:09:42;2.60;;;2.40;;
12925;SDS011;6529;50.566;9.774;2022-09-12T18:12:10;2.72;;;2.53;;
12925;SDS011;6529;50.566;9.774;2022-09-12T18:14:36;2.90;;;2.60;;
12925;SDS011;6529;50.566;9.774;2022-09-12T18:17:03;3.50;;;3.17;;
12925;SDS011;6529;50.566;9.774;2022-09-12T18:19:30;4.25;;;3.22;;
12925;SDS011;6529;50.566;9.774;2022-09-12T18:21:57;3.53;;;3.20;;
12925;SDS011;6529;50.566;9.774;2022-09-12T18:24:23;5.97;;;3.55;;